createdAt,value
2023-02-19T00:01:48.867Z,24.20
2023-02-19T00:04:17.988Z,24.20
2023-02-19T00:06:45.995Z,24.20
2023-02-19T00:09:14.312Z,24.20
2023-02-19T00:11:42.089Z,24.20
2023-02-19T00:14:09.658Z,24.30
2023-02-19T00:16:38.465Z,24.30
2023-02-19T00:19:09.068Z,24.30
2023-02-19T00:21:36.540Z,24.30
2023-02-19T00:24:05.519Z,24.30
2023-02-19T00:26:33.398Z,24.30
2023-02-19T00:29:01.611Z,24.30
2023-02-19T00:31:32.674Z,24.30
2023-02-19T00:34:08.749Z,24.30
2023-02-19T00:36:38.305Z,24.30
2023-02-19T00:39:07.317Z,24.30
2023-02-19T00:41:34.926Z,24.40
2023-02-19T00:44:03.495Z,24.40
2023-02-19T00:46:38.751Z,24.40
2023-02-19T00:49:07.248Z,24.40
2023-02-19T00:51:36.319Z,24.40
2023-02-19T00:54:05.120Z,24.40
2023-02-19T00:56:32.756Z,24.50
2023-02-19T00:59:00.333Z,24.50
2023-02-19T01:01:27.947Z,24.50
2023-02-19T01:03:57.299Z,24.50
2023-02-19T01:09:20.406Z,24.50
2023-02-19T01:11:47.975Z,24.50
2023-02-19T01:14:15.480Z,24.60
2023-02-19T01:16:44.103Z,24.60
2023-02-19T01:19:12.970Z,24.60
2023-02-19T01:21:40.812Z,24.60
2023-02-19T01:24:08.691Z,24.70
2023-02-19T01:26:36.202Z,24.70
2023-02-19T01:29:04.278Z,24.70
2023-02-19T01:31:32.823Z,24.80
2023-02-19T01:34:01.639Z,24.90
2023-02-19T01:36:29.723Z,24.90
2023-02-19T01:38:58.123Z,25.00
2023-02-19T01:41:26.058Z,25.00
2023-02-19T01:44:04.974Z,25.00
2023-02-19T01:46:35.192Z,25.00
2023-02-19T01:49:21.309Z,25.10
2023-02-19T01:51:55.222Z,25.10
2023-02-19T01:54:24.566Z,25.10
2023-02-19T01:56:52.756Z,25.10
2023-02-19T01:59:20.618Z,25.10
2023-02-19T02:01:49.688Z,25.10
2023-02-19T02:04:18.972Z,25.20
2023-02-19T02:06:46.739Z,25.20
2023-02-19T02:09:34.362Z,25.20
2023-02-19T02:12:04.957Z,25.30
2023-02-19T02:14:34.627Z,25.30
2023-02-19T02:17:09.984Z,25.40
2023-02-19T02:19:40.436Z,25.40
2023-02-19T02:22:08.520Z,25.40
2023-02-19T02:24:55.099Z,25.50
2023-02-19T02:27:39.950Z,25.50
2023-02-19T02:30:14.177Z,25.60
2023-02-19T02:33:03.056Z,25.70
2023-02-19T02:35:31.834Z,25.80
2023-02-19T02:38:01.872Z,25.90
2023-02-19T02:40:30.472Z,25.90
2023-02-19T02:42:59.200Z,26.00
2023-02-19T02:45:41.987Z,26.10
2023-02-19T02:48:18.951Z,26.10
2023-02-19T02:50:52.765Z,26.10
2023-02-19T02:53:46.525Z,26.20
2023-02-19T02:56:15.168Z,26.20
2023-02-19T02:58:43.279Z,26.20
2023-02-19T03:01:55.313Z,26.30
2023-02-19T03:04:31.108Z,26.30
2023-02-19T03:07:00.593Z,26.30
2023-02-19T03:09:41.612Z,26.30
2023-02-19T03:12:53.748Z,26.40
2023-02-19T03:15:40.434Z,26.50
2023-02-19T03:18:29.261Z,26.50
2023-02-19T03:20:58.428Z,26.60
2023-02-19T03:23:48.235Z,26.70
2023-02-19T03:26:18.093Z,26.70
2023-02-19T03:29:04.726Z,26.80
2023-02-19T03:31:34.624Z,26.90
2023-02-19T03:34:04.476Z,27.00
2023-02-19T03:36:39.032Z,27.00
2023-02-19T03:39:08.471Z,27.10
2023-02-19T03:41:40.956Z,27.30
2023-02-19T03:44:08.788Z,27.30
2023-02-19T03:46:47.902Z,27.40
2023-02-19T03:49:24.741Z,27.50
2023-02-19T03:52:00.463Z,27.50
2023-02-19T03:54:27.956Z,27.60
2023-02-19T03:57:07.795Z,27.60
2023-02-19T03:59:57.362Z,27.70
2023-02-19T04:02:35.733Z,27.70
2023-02-19T04:05:11.328Z,27.80
2023-02-19T04:07:44.313Z,27.80
2023-02-19T04:10:12.132Z,27.90
2023-02-19T04:12:40.665Z,27.90
2023-02-19T04:15:09.591Z,28.00
2023-02-19T04:17:39.820Z,28.00
2023-02-19T04:20:09.424Z,28.10
2023-02-19T04:22:38.598Z,28.20
2023-02-19T04:25:07.104Z,28.20
2023-02-19T04:27:38.596Z,28.20
2023-02-19T04:30:07.852Z,28.20
2023-02-19T04:32:35.947Z,28.30
2023-02-19T04:35:06.207Z,28.40
2023-02-19T04:37:36.480Z,28.40
2023-02-19T04:40:05.428Z,28.50
2023-02-19T04:42:32.952Z,28.60
2023-02-19T04:45:03.585Z,28.70
2023-02-19T04:47:34.168Z,28.70
2023-02-19T04:50:05.471Z,28.60
2023-02-19T04:52:33.599Z,28.60
2023-02-19T04:55:01.141Z,28.60
2023-02-19T04:57:35.377Z,28.60
2023-02-19T05:00:05.442Z,28.70
2023-02-19T05:02:33.941Z,28.70
2023-02-19T05:05:04.725Z,28.80
2023-02-19T05:07:33.624Z,28.80
2023-02-19T05:10:01.229Z,28.90
2023-02-19T05:12:32.210Z,29.00
2023-02-19T05:15:00.092Z,29.10
2023-02-19T05:17:27.644Z,29.10
2023-02-19T05:19:55.246Z,29.10
2023-02-19T05:22:25.867Z,29.20
2023-02-19T05:24:53.348Z,29.20
2023-02-19T05:27:20.864Z,29.30
2023-02-19T05:29:48.587Z,29.30
2023-02-19T05:32:16.194Z,29.30
2023-02-19T05:34:44.527Z,29.40
2023-02-19T05:37:12.104Z,29.50
2023-02-19T05:39:39.578Z,29.50
2023-02-19T05:42:07.713Z,29.40
2023-02-19T05:44:35.215Z,29.40
2023-02-19T05:47:08.914Z,29.30
2023-02-19T05:49:36.738Z,29.40
2023-02-19T05:52:04.817Z,29.30
2023-02-19T05:54:32.469Z,29.40
2023-02-19T05:57:03.208Z,29.40
2023-02-19T05:59:31.698Z,29.40
2023-02-19T06:02:08.636Z,29.50
2023-02-19T06:04:37.429Z,29.70
2023-02-19T06:07:05.147Z,29.70
2023-02-19T06:09:33.057Z,29.90
2023-02-19T06:12:00.703Z,29.90
2023-02-19T06:14:30.286Z,30.00
2023-02-19T06:16:57.900Z,30.00
2023-02-19T06:19:26.337Z,30.00
2023-02-19T06:21:53.853Z,29.90
2023-02-19T06:24:21.390Z,29.90
2023-02-19T06:26:51.398Z,30.00
2023-02-19T06:29:18.919Z,30.10
2023-02-19T06:31:46.601Z,30.00
2023-02-19T06:34:15.375Z,30.00
2023-02-19T06:36:43.726Z,30.00
2023-02-19T06:39:11.573Z,30.00
2023-02-19T06:41:39.117Z,30.10
2023-02-19T06:44:07.404Z,30.20
2023-02-19T06:46:35.797Z,30.30
2023-02-19T06:49:04.863Z,30.30
2023-02-19T06:51:33.422Z,30.40
2023-02-19T06:54:02.900Z,30.40
2023-02-19T06:56:33.664Z,30.40
2023-02-19T06:59:02.744Z,30.40
2023-02-19T07:01:33.506Z,30.40
2023-02-19T07:04:02.735Z,30.40
2023-02-19T07:06:31.220Z,30.30
2023-02-19T07:08:59.359Z,30.30
2023-02-19T07:11:29.366Z,30.30
2023-02-19T07:14:00.209Z,30.30
2023-02-19T07:16:27.773Z,30.30
2023-02-19T07:18:58.920Z,30.30
2023-02-19T07:21:26.986Z,30.40
2023-02-19T07:23:55.124Z,30.40
2023-02-19T07:26:25.707Z,30.40
2023-02-19T07:28:53.411Z,30.40
2023-02-19T07:31:22.596Z,30.50
2023-02-19T07:33:52.067Z,30.50
2023-02-19T07:36:20.660Z,30.60
2023-02-19T07:38:48.234Z,30.70
2023-02-19T07:41:15.807Z,30.70
2023-02-19T07:43:43.444Z,30.80
2023-02-19T07:46:14.110Z,30.80
2023-02-19T07:48:42.834Z,30.80
2023-02-19T07:51:16.728Z,30.80
2023-02-19T07:53:45.541Z,30.90
2023-02-19T07:56:16.683Z,30.80
2023-02-19T07:58:46.951Z,30.90
2023-02-19T08:01:20.425Z,30.90
2023-02-19T08:03:50.328Z,30.90
2023-02-19T08:06:18.093Z,30.90
2023-02-19T08:08:45.723Z,30.90
2023-02-19T08:11:32.424Z,30.90
2023-02-19T08:14:00.564Z,30.90
2023-02-19T08:16:42.197Z,30.90
2023-02-19T08:19:10.469Z,30.90
2023-02-19T08:21:40.383Z,30.90
2023-02-19T08:24:08.003Z,30.90
2023-02-19T08:26:36.547Z,30.90
2023-02-19T08:29:06.309Z,30.90
2023-02-19T08:31:34.749Z,30.90
2023-02-19T08:34:03.739Z,30.90
2023-02-19T08:36:31.370Z,30.90
2023-02-19T08:38:59.549Z,30.90
2023-02-19T08:41:27.320Z,30.90
2023-02-19T08:43:55.907Z,30.80
2023-02-19T08:46:23.682Z,30.80
2023-02-19T08:48:51.410Z,30.80
2023-02-19T08:51:21.439Z,30.80
2023-02-19T08:53:50.593Z,30.80
2023-02-19T08:56:18.577Z,30.80
2023-02-19T08:58:46.361Z,30.80
2023-02-19T09:01:16.632Z,30.90
2023-02-19T09:03:44.605Z,30.80
2023-02-19T09:06:20.386Z,30.90
2023-02-19T09:08:47.967Z,30.90
2023-02-19T09:11:16.387Z,30.80
2023-02-19T09:13:44.242Z,30.80
2023-02-19T09:16:11.842Z,30.80
2023-02-19T09:18:40.525Z,30.80
2023-02-19T09:21:08.210Z,30.80
2023-02-19T09:23:37.103Z,30.70
2023-02-19T09:26:08.041Z,30.60
2023-02-19T09:28:36.950Z,30.60
2023-02-19T09:31:07.482Z,30.50
2023-02-19T09:33:35.509Z,30.50
2023-02-19T09:36:03.929Z,30.40
2023-02-19T09:38:31.590Z,30.40
2023-02-19T09:40:59.560Z,30.30
2023-02-19T09:43:29.266Z,30.30
2023-02-19T09:46:16.342Z,30.30
2023-02-19T09:48:44.007Z,30.20
2023-02-19T09:51:13.827Z,30.20
2023-02-19T09:53:43.552Z,30.20
2023-02-19T09:56:12.181Z,30.20
2023-02-19T09:58:50.596Z,30.20
2023-02-19T10:01:19.870Z,30.20
2023-02-19T10:03:49.368Z,30.20
2023-02-19T10:06:20.900Z,30.10
2023-02-19T10:08:50.937Z,30.10
2023-02-19T10:11:19.348Z,30.10
2023-02-19T10:13:50.006Z,30.10
2023-02-19T10:16:28.264Z,30.10
2023-02-19T10:18:57.621Z,30.20
2023-02-19T10:21:26.526Z,30.20
2023-02-19T10:24:00.065Z,30.20
2023-02-19T10:26:27.895Z,30.10
2023-02-19T10:28:56.734Z,30.10
2023-02-19T10:31:25.452Z,30.10
2023-02-19T10:33:58.186Z,30.00
2023-02-19T10:36:26.910Z,30.00
2023-02-19T10:38:55.585Z,30.00
2023-02-19T10:41:25.194Z,30.00
2023-02-19T10:43:55.904Z,29.90
2023-02-19T10:46:27.874Z,29.90
2023-02-19T10:48:58.572Z,29.80
2023-02-19T10:51:33.504Z,29.80
2023-02-19T10:54:08.132Z,29.70
2023-02-19T10:56:38.790Z,29.60
2023-02-19T10:59:19.540Z,29.60
2023-02-19T11:01:57.689Z,29.60
2023-02-19T11:04:26.630Z,29.50
2023-02-19T11:06:55.193Z,29.40
2023-02-19T11:09:32.673Z,29.40
2023-02-19T11:12:00.346Z,29.40
2023-02-19T11:14:29.571Z,29.30
2023-02-19T11:16:58.844Z,29.20
2023-02-19T11:19:37.017Z,29.20
2023-02-19T11:22:22.411Z,29.20
2023-02-19T11:24:56.197Z,29.10
2023-02-19T11:27:26.625Z,29.10
2023-02-19T11:29:54.986Z,29.00
2023-02-19T11:32:30.084Z,29.00
2023-02-19T11:35:17.950Z,28.90
2023-02-19T11:37:54.893Z,28.90
2023-02-19T11:40:24.356Z,28.80
2023-02-19T11:43:11.361Z,28.80
2023-02-19T11:46:09.888Z,28.70
2023-02-19T11:48:57.444Z,28.70
2023-02-19T11:51:25.051Z,28.60
2023-02-19T11:54:02.267Z,28.60
2023-02-19T11:56:37.660Z,28.50
2023-02-19T11:59:22.217Z,28.50
2023-02-19T12:01:57.951Z,28.40
2023-02-19T12:04:44.990Z,28.40
2023-02-19T12:07:23.263Z,28.40
2023-02-19T12:09:51.753Z,28.40
2023-02-19T12:12:46.338Z,28.30
2023-02-19T12:15:27.882Z,28.30
2023-02-19T12:18:10.347Z,28.30
2023-02-19T12:20:50.263Z,28.20
2023-02-19T12:23:18.566Z,28.20
2023-02-19T12:26:03.172Z,28.10
2023-02-19T12:28:30.872Z,28.10
2023-02-19T12:31:04.661Z,28.10
2023-02-19T12:33:50.908Z,28.10
2023-02-19T12:36:27.685Z,28.00
2023-02-19T12:39:11.554Z,28.00
2023-02-19T12:41:44.304Z,28.00
2023-02-19T12:44:18.209Z,27.90
2023-02-19T12:46:50.183Z,27.90
2023-02-19T12:49:30.227Z,27.90
2023-02-19T12:52:01.292Z,27.90
2023-02-19T12:54:31.461Z,27.90
2023-02-19T12:56:59.308Z,27.80
2023-02-19T12:59:29.933Z,27.80
2023-02-19T13:02:07.208Z,27.80
2023-02-19T13:04:49.219Z,27.80
2023-02-19T13:07:20.226Z,27.70
2023-02-19T13:09:50.029Z,27.70
2023-02-19T13:12:28.774Z,27.70
2023-02-19T13:15:04.579Z,27.70
2023-02-19T13:17:44.404Z,27.60
2023-02-19T13:20:34.938Z,27.60
2023-02-19T13:23:26.313Z,27.60
2023-02-19T13:25:56.668Z,27.50
2023-02-19T13:28:36.011Z,27.50
2023-02-19T13:31:16.353Z,27.50
2023-02-19T13:33:49.599Z,27.40
2023-02-19T13:36:30.194Z,27.40
2023-02-19T13:38:58.096Z,27.40
2023-02-19T13:41:31.368Z,27.40
2023-02-19T13:44:04.090Z,27.30
2023-02-19T13:46:43.411Z,27.30
2023-02-19T13:49:29.098Z,27.30
2023-02-19T13:51:57.503Z,27.30
2023-02-19T13:54:40.151Z,27.20
2023-02-19T13:57:25.899Z,27.20
2023-02-19T13:59:57.285Z,27.20
2023-02-19T14:02:36.374Z,27.10
2023-02-19T14:05:03.914Z,27.10
2023-02-19T14:07:49.575Z,27.10
2023-02-19T14:10:35.674Z,27.00
2023-02-19T14:13:03.300Z,27.00
2023-02-19T14:15:39.808Z,27.00
2023-02-19T14:18:25.749Z,27.00
2023-02-19T14:21:06.449Z,27.00
2023-02-19T14:23:33.974Z,26.90
2023-02-19T14:26:03.445Z,26.90
2023-02-19T14:28:45.121Z,26.90
2023-02-19T14:31:42.019Z,26.80
2023-02-19T14:34:24.063Z,26.80
2023-02-19T14:36:59.078Z,26.80
2023-02-19T14:39:37.547Z,26.80
2023-02-19T14:42:25.443Z,26.70
2023-02-19T14:44:52.910Z,26.70
2023-02-19T14:47:22.211Z,26.70
2023-02-19T14:49:54.329Z,26.60
2023-02-19T14:52:28.570Z,26.60
2023-02-19T14:54:59.169Z,26.60
2023-02-19T14:57:31.629Z,26.50
2023-02-19T15:00:00.877Z,26.50
2023-02-19T15:02:30.239Z,26.50
2023-02-19T15:04:57.938Z,26.40
2023-02-19T15:07:28.107Z,26.40
2023-02-19T15:10:05.569Z,26.30
2023-02-19T15:12:41.950Z,26.30
2023-02-19T15:15:10.502Z,26.30
2023-02-19T15:17:41.027Z,26.30
2023-02-19T15:20:12.922Z,26.20
2023-02-19T15:22:41.771Z,26.20
2023-02-19T15:25:12.896Z,26.10
2023-02-19T15:27:40.375Z,26.10
2023-02-19T15:30:18.798Z,26.10
2023-02-19T15:32:56.159Z,26.00
2023-02-19T15:35:25.472Z,26.00
2023-02-19T15:37:54.215Z,26.00
2023-02-19T15:40:25.081Z,26.00
2023-02-19T15:42:53.539Z,25.90
2023-02-19T15:45:21.092Z,25.80
2023-02-19T15:47:52.335Z,25.80
2023-02-19T15:50:24.722Z,25.80
2023-02-19T15:52:52.190Z,25.70
2023-02-19T15:55:37.164Z,25.70
2023-02-19T15:58:24.744Z,25.60
2023-02-19T16:00:54.912Z,25.70
2023-02-19T16:03:26.468Z,25.60
2023-02-19T16:06:00.666Z,25.60
2023-02-19T16:08:31.091Z,25.60
2023-02-19T16:11:00.044Z,25.60
2023-02-19T16:13:28.557Z,25.60
2023-02-19T16:16:01.377Z,25.50
2023-02-19T16:18:29.025Z,25.50
2023-02-19T16:20:56.585Z,25.40
2023-02-19T16:23:25.637Z,25.40
2023-02-19T16:26:04.060Z,25.40
2023-02-19T16:28:36.285Z,25.40
2023-02-19T16:31:08.466Z,25.40
2023-02-19T16:33:43.570Z,25.40
2023-02-19T16:36:19.094Z,25.40
2023-02-19T16:39:10.183Z,25.40
2023-02-19T16:41:41.240Z,25.30
2023-02-19T16:44:32.463Z,25.30
2023-02-19T16:47:05.761Z,25.30
2023-02-19T16:49:33.371Z,25.20
2023-02-19T16:52:02.683Z,25.20
2023-02-19T16:54:31.908Z,25.20
2023-02-19T16:56:59.485Z,25.20
2023-02-19T16:59:26.977Z,25.10
2023-02-19T17:01:54.573Z,25.10
2023-02-19T17:04:22.213Z,25.10
2023-02-19T17:06:49.746Z,25.00
2023-02-19T17:09:18.124Z,25.00
2023-02-19T17:11:45.616Z,25.00
2023-02-19T17:14:13.160Z,24.90
2023-02-19T17:16:40.901Z,24.90
2023-02-19T17:19:18.566Z,24.90
2023-02-19T17:21:46.982Z,24.90
2023-02-19T17:24:15.155Z,24.90
2023-02-19T17:26:42.679Z,24.90
2023-02-19T17:29:14.533Z,24.90
2023-02-19T17:31:42.103Z,24.90
2023-02-19T17:34:09.743Z,24.90
2023-02-19T17:36:38.392Z,24.80
2023-02-19T17:39:08.988Z,24.80
2023-02-19T17:41:36.482Z,24.80
2023-02-19T17:44:04.026Z,24.80
2023-02-19T17:46:31.512Z,24.80
2023-02-19T17:48:59.344Z,24.70
2023-02-19T17:51:26.880Z,24.70
2023-02-19T17:53:55.203Z,24.70
2023-02-19T17:56:24.667Z,24.70
2023-02-19T17:58:53.631Z,24.70
2023-02-19T18:01:21.480Z,24.60
2023-02-19T18:03:49.480Z,24.60
2023-02-19T18:06:17.100Z,24.60
2023-02-19T18:08:51.148Z,24.60
2023-02-19T18:11:19.422Z,24.60
2023-02-19T18:13:48.285Z,24.60
2023-02-19T18:16:18.981Z,24.60
2023-02-19T18:18:46.543Z,24.60
2023-02-19T18:21:14.379Z,24.60
2023-02-19T18:23:42.298Z,24.60
2023-02-19T18:26:10.992Z,24.50
2023-02-19T18:28:38.839Z,24.50
2023-02-19T18:31:07.310Z,24.50
2023-02-19T18:33:35.632Z,24.50
2023-02-19T18:36:03.776Z,24.40
2023-02-19T18:38:31.266Z,24.40
2023-02-19T18:40:58.988Z,24.40
2023-02-19T18:43:26.601Z,24.30
2023-02-19T18:45:54.214Z,24.30
2023-02-19T18:48:21.817Z,24.30
2023-02-19T18:50:49.349Z,24.20
2023-02-19T18:53:16.849Z,24.20
2023-02-19T18:55:44.511Z,24.10
2023-02-19T18:58:12.043Z,24.10
2023-02-19T19:00:39.564Z,24.10
2023-02-19T19:03:07.209Z,24.10
2023-02-19T19:05:34.799Z,24.10
2023-02-19T19:08:02.314Z,24.10
2023-02-19T19:10:31.000Z,24.00
2023-02-19T19:12:58.872Z,24.00
2023-02-19T19:15:26.766Z,24.00
2023-02-19T19:17:55.235Z,24.00
2023-02-19T19:20:23.576Z,23.90
2023-02-19T19:22:52.005Z,23.90
2023-02-19T19:25:20.038Z,23.90
2023-02-19T19:27:47.688Z,23.90
2023-02-19T19:30:15.362Z,23.90
2023-02-19T19:32:42.969Z,23.80
2023-02-19T19:35:10.534Z,23.80
2023-02-19T19:37:38.262Z,23.80
2023-02-19T19:40:06.414Z,23.80
2023-02-19T19:42:33.930Z,23.70
2023-02-19T19:45:01.606Z,23.70
2023-02-19T19:47:29.936Z,23.70
2023-02-19T19:49:57.470Z,23.60
2023-02-19T19:52:24.995Z,23.60
2023-02-19T19:54:54.396Z,23.60
2023-02-19T19:57:22.000Z,23.60
2023-02-19T19:59:51.325Z,23.60
2023-02-19T20:02:19.310Z,23.60
2023-02-19T20:04:47.909Z,23.50
2023-02-19T20:07:15.531Z,23.50
2023-02-19T20:09:46.780Z,23.50
2023-02-19T20:12:14.347Z,23.50
2023-02-19T20:14:44.691Z,23.40
2023-02-19T20:17:13.727Z,23.40
2023-02-19T20:19:41.334Z,23.40
2023-02-19T20:22:08.902Z,23.30
2023-02-19T20:24:37.497Z,23.40
2023-02-19T20:27:05.056Z,23.30
2023-02-19T20:29:34.118Z,23.30
2023-02-19T20:32:03.860Z,23.30
2023-02-19T20:34:32.457Z,23.30
2023-02-19T20:37:00.170Z,23.30
2023-02-19T20:39:29.926Z,23.30
2023-02-19T20:41:58.530Z,23.20
2023-02-19T20:44:26.769Z,23.20
2023-02-19T20:46:54.742Z,23.20
2023-02-19T20:49:24.285Z,23.20
2023-02-19T20:51:55.009Z,23.20
2023-02-19T20:54:23.641Z,23.20
2023-02-19T20:56:53.240Z,23.20
2023-02-19T20:59:22.844Z,23.20
2023-02-19T21:01:50.805Z,23.20
2023-02-19T21:04:21.647Z,23.20
2023-02-19T21:06:52.307Z,23.10
2023-02-19T21:09:20.487Z,23.10
2023-02-19T21:11:48.820Z,23.10
2023-02-19T21:14:16.761Z,23.10
2023-02-19T21:16:44.419Z,23.10
2023-02-19T21:19:12.034Z,23.10
2023-02-19T21:21:40.561Z,23.10
2023-02-19T21:24:10.745Z,23.10
2023-02-19T21:26:39.446Z,23.00
2023-02-19T21:29:07.846Z,23.00
2023-02-19T21:31:36.745Z,23.00
2023-02-19T21:34:06.110Z,22.90
2023-02-19T21:36:33.672Z,22.90
2023-02-19T21:39:01.396Z,22.90
2023-02-19T21:41:29.128Z,22.80
2023-02-19T21:43:57.300Z,22.80
2023-02-19T21:46:25.856Z,22.90
2023-02-19T21:48:54.755Z,22.90
2023-02-19T21:51:27.927Z,22.90
2023-02-19T21:53:55.508Z,22.80
2023-02-19T21:56:28.035Z,22.90
2023-02-19T21:58:55.762Z,22.80
2023-02-19T22:01:23.984Z,22.80
2023-02-19T22:03:51.749Z,22.80
2023-02-19T22:06:23.624Z,22.70
2023-02-19T22:08:51.425Z,22.70
2023-02-19T22:11:18.940Z,22.60
2023-02-19T22:13:46.998Z,22.60
2023-02-19T22:16:14.974Z,22.50
2023-02-19T22:18:52.713Z,22.50
2023-02-19T22:21:20.502Z,22.50
2023-02-19T22:23:48.869Z,22.50
2023-02-19T22:26:20.295Z,22.40
2023-02-19T22:28:48.172Z,22.50
2023-02-19T22:31:16.390Z,22.50
2023-02-19T22:33:44.141Z,22.40
2023-02-19T22:36:19.265Z,22.50
2023-02-19T22:38:47.136Z,22.40
2023-02-19T22:41:15.577Z,22.40
2023-02-19T22:43:43.129Z,22.50
2023-02-19T22:46:12.869Z,22.50
2023-02-19T22:48:40.647Z,22.50
2023-02-19T22:51:13.511Z,22.50
2023-02-19T22:53:45.355Z,22.50
2023-02-19T22:56:13.971Z,22.40
2023-02-19T22:58:43.049Z,22.40
2023-02-19T23:01:11.740Z,22.40
2023-02-19T23:04:05.285Z,22.30
2023-02-19T23:06:34.149Z,22.30
2023-02-19T23:09:08.504Z,22.30
2023-02-19T23:11:39.445Z,22.30
2023-02-19T23:14:07.341Z,22.30
2023-02-19T23:16:38.196Z,22.30
2023-02-19T23:19:06.864Z,22.20
2023-02-19T23:21:34.629Z,22.20
2023-02-19T23:24:02.258Z,22.20
2023-02-19T23:26:29.914Z,22.20
2023-02-19T23:28:57.744Z,22.20
2023-02-19T23:31:26.993Z,22.20
2023-02-19T23:33:57.388Z,22.20
2023-02-19T23:36:25.832Z,22.20
2023-02-19T23:38:53.656Z,22.20
2023-02-19T23:41:21.183Z,22.30
2023-02-19T23:43:48.856Z,22.20
2023-02-19T23:46:18.056Z,22.20
2023-02-19T23:48:46.523Z,22.20
2023-02-19T23:51:14.482Z,22.30
2023-02-19T23:53:42.047Z,22.20
2023-02-19T23:56:10.663Z,22.20
2023-02-19T23:58:38.598Z,22.20
